Time;durP1;ratioP1;P1;durP2;ratioP2;P2;SDS_P1;SDS_P2;PMS_P1;PMS_P2;Temp;Humidity;BMP_temperature;BMP_pressure;BME280_temperature;BME280_humidity;BME280_pressure;Samples;Min_cycle;Max_cycle;Signal;HPM_P1;HPM_P2
2021/09/30 00:01:07;;;;;;;5.22;4.32;;;;;;;;;;4808713;29;32549;-64
2021/09/30 00:03:34;;;;;;;7.43;3.92;;;;;;;;;;4809430;29;32282;-63
2021/09/30 00:06:00;;;;;;;6.63;4.22;;;;;;;;;;4802092;29;34863;-64
2021/09/30 00:09:19;;;;;;;5.63;4.43;;;;;;;;;;4791304;29;32803;-63
2021/09/30 00:11:51;;;;;;;5.20;3.58;;;;;;;;;;4790962;29;32573;-64
2021/09/30 01:18:37;;;;;;;6.78;3.85;;;;;;;;;;4792379;29;32432;-65
2021/09/30 02:59:41;;;;;;;7.80;4.50;;;;;;;;;;4812240;29;32397;-65
2021/09/30 03:02:10;;;;;;;6.07;4.30;;;;;;;;;;4811931;29;32273;-63
2021/09/30 03:04:39;;;;;;;7.55;4.60;;;;;;;;;;4812195;29;32575;-64
2021/09/30 03:07:06;;;;;;;7.63;4.78;;;;;;;;;;4804925;29;32246;-66
2021/09/30 03:09:39;;;;;;;9.23;5.03;;;;;;;;;;4801624;29;34089;-64
2021/09/30 03:12:18;;;;;;;7.90;5.45;;;;;;;;;;4795746;29;33120;-63
2021/09/30 03:14:48;;;;;;;8.73;4.60;;;;;;;;;;4792961;29;32564;-64
2021/09/30 03:17:21;;;;;;;11.13;4.82;;;;;;;;;;4805740;29;32466;-65
2021/09/30 03:19:57;;;;;;;12.93;5.50;;;;;;;;;;4792864;29;32447;-64
2021/09/30 03:22:24;;;;;;;10.70;5.07;;;;;;;;;;4793097;29;32494;-64
2021/09/30 03:24:51;;;;;;;9.55;4.82;;;;;;;;;;4792854;29;32500;-66
2021/09/30 03:27:18;;;;;;;;;;;;;;;;;;4793123;29;32440;-65
2021/09/30 03:29:45;;;;;;;11.77;5.18;;;;;;;;;;4794350;29;32144;-66
2021/09/30 03:32:12;;;;;;;10.80;4.90;;;;;;;;;;4810530;29;34521;-64
2021/09/30 03:34:39;;;;;;;10.77;4.63;;;;;;;;;;4809039;29;32548;-65
2021/09/30 03:37:07;;;;;;;10.80;5.18;;;;;;;;;;4810961;29;32389;-65
2021/09/30 03:39:34;;;;;;;15.15;6.90;;;;;;;;;;4811696;29;32380;-67
2021/09/30 03:42:02;;;;;;;11.65;6.43;;;;;;;;;;4809338;29;32658;-66
2021/09/30 03:44:29;;;;;;;11.30;6.05;;;;;;;;;;4809866;29;33057;-65
2021/09/30 03:46:55;;;;;;;15.00;6.80;;;;;;;;;;4809661;29;32541;-65
2021/09/30 03:49:33;;;;;;;10.38;5.80;;;;;;;;;;4811294;29;32512;-65
2021/09/30 03:52:23;;;;;;;13.52;5.40;;;;;;;;;;4790327;29;32368;-66
2021/09/30 03:57:50;;;;;;;9.10;5.07;;;;;;;;;;4793357;29;32380;-65
2021/09/30 04:00:17;;;;;;;8.23;3.97;;;;;;;;;;4800085;29;32547;-65
2021/09/30 04:02:44;;;;;;;9.68;5.20;;;;;;;;;;4811544;29;32320;-65
2021/09/30 04:05:11;;;;;;;12.90;5.90;;;;;;;;;;4810779;29;32294;-66
2021/09/30 04:07:38;;;;;;;12.98;5.55;;;;;;;;;;4809858;29;32514;-65
2021/09/30 04:10:07;;;;;;;11.20;5.50;;;;;;;;;;4810529;29;32532;-63
2021/09/30 04:12:33;;;;;;;18.17;5.53;;;;;;;;;;4810526;29;32416;-64
2021/09/30 04:15:00;;;;;;;10.50;5.15;;;;;;;;;;4810467;29;32375;-65
2021/09/30 04:17:27;;;;;;;10.00;5.35;;;;;;;;;;4809220;29;34265;-63
2021/09/30 04:19:53;;;;;;;;;;;;;;;;;;4811382;29;32455;-65
2021/09/30 04:22:19;;;;;;;11.80;5.20;;;;;;;;;;4811607;29;32415;-67
2021/09/30 04:24:48;;;;;;;11.20;5.18;;;;;;;;;;4811200;29;32395;-65
2021/09/30 04:27:16;;;;;;;15.93;5.93;;;;;;;;;;4810990;29;35381;-65
2021/09/30 04:29:44;;;;;;;11.05;5.32;;;;;;;;;;4806440;29;32329;-66
2021/09/30 04:32:11;;;;;;;13.52;6.00;;;;;;;;;;4801548;29;32439;-65
2021/09/30 04:34:38;;;;;;;10.70;5.60;;;;;;;;;;4799839;29;32436;-65
2021/09/30 04:37:05;;;;;;;11.88;5.32;;;;;;;;;;4802258;29;32468;-65
2021/09/30 04:39:31;;;;;;;;;;;;;;;;;;4801755;29;35242;-65
2021/09/30 04:41:58;;;;;;;13.35;5.18;;;;;;;;;;4800010;29;32355;-66
2021/09/30 04:44:26;;;;;;;9.00;5.10;;;;;;;;;;4799219;29;32443;-65
2021/09/30 04:46:53;;;;;;;9.52;5.35;;;;;;;;;;4802061;29;32458;-64
2021/09/30 04:49:19;;;;;;;11.25;5.15;;;;;;;;;;4800044;29;34548;-67
2021/09/30 04:51:46;;;;;;;13.48;5.45;;;;;;;;;;4805717;29;32340;-65
2021/09/30 04:54:12;;;;;;;16.92;5.35;;;;;;;;;;4810724;29;32931;-66
2021/09/30 04:56:39;;;;;;;13.68;5.82;;;;;;;;;;4811022;29;32437;-66
2021/09/30 04:59:05;;;;;;;14.75;6.50;;;;;;;;;;4810845;29;32301;-65
2021/09/30 05:01:34;;;;;;;21.25;6.50;;;;;;;;;;4805446;29;35055;-66
2021/09/30 05:04:00;;;;;;;17.73;6.00;;;;;;;;;;4810397;29;32309;-66
2021/09/30 05:06:27;;;;;;;24.30;6.70;;;;;;;;;;4803781;29;34337;-66
2021/09/30 05:08:57;;;;;;;17.08;5.70;;;;;;;;;;4810193;29;32369;-64
2021/09/30 05:11:30;;;;;;;19.77;5.97;;;;;;;;;;4808586;29;34725;-65
2021/09/30 05:13:58;;;;;;;19.50;6.05;;;;;;;;;;4808735;29;32383;-65
2021/09/30 05:16:25;;;;;;;20.55;6.07;;;;;;;;;;4810147;29;32534;-65
2021/09/30 05:18:55;;;;;;;21.73;4.95;;;;;;;;;;4810326;29;32288;-65
2021/09/30 05:21:22;;;;;;;14.63;5.13;;;;;;;;;;4810644;29;32593;-65
2021/09/30 05:23:55;;;;;;;16.38;4.65;;;;;;;;;;4809959;29;35260;-66
2021/09/30 05:26:22;;;;;;;11.48;4.72;;;;;;;;;;4809637;29;32706;-66
2021/09/30 05:28:48;;;;;;;14.60;5.40;;;;;;;;;;4804023;29;32684;-65
2021/09/30 05:31:15;;;;;;;10.48;4.60;;;;;;;;;;4798267;29;32305;-66
2021/09/30 05:33:41;;;;;;;;;;;;;;;;;;4799563;29;35828;-66
2021/09/30 05:36:09;;;;;;;13.23;4.65;;;;;;;;;;4794273;29;32567;-68
2021/09/30 05:38:35;;;;;;;10.82;4.68;;;;;;;;;;4800477;29;32416;-66
2021/09/30 05:41:02;;;;;;;;;;;;;;;;;;4801198;29;32518;-64
2021/09/30 05:43:35;;;;;;;12.88;4.75;;;;;;;;;;4799227;29;32424;-67
2021/09/30 05:46:03;;;;;;;11.38;5.68;;;;;;;;;;4799293;29;35562;-66
2021/09/30 05:48:30;;;;;;;10.90;5.22;;;;;;;;;;4800647;29;32461;-67
2021/09/30 05:50:58;;;;;;;14.98;5.55;;;;;;;;;;4799719;29;32299;-65
2021/09/30 05:53:26;;;;;;;14.30;5.80;;;;;;;;;;4799894;29;32337;-66
2021/09/30 05:55:52;;;;;;;14.02;5.93;;;;;;;;;;4801687;29;34035;-66
2021/09/30 05:58:19;;;;;;;16.95;5.95;;;;;;;;;;4802747;29;32519;-67
2021/09/30 06:14:13;;;;;;;14.27;4.63;;;;;;;;;;4800922;29;32323;-67
2021/09/30 06:16:50;;;;;;;8.32;4.65;;;;;;;;;;4802412;29;32501;-65
2021/09/30 06:19:22;;;;;;;10.07;4.55;;;;;;;;;;4802390;29;34157;-67
2021/09/30 06:21:49;;;;;;;13.00;5.05;;;;;;;;;;4801210;29;32498;-65
2021/09/30 06:24:21;;;;;;;8.23;5.00;;;;;;;;;;4801925;29;32490;-65
2021/09/30 06:26:48;;;;;;;11.20;5.93;;;;;;;;;;4800868;29;32502;-66
2021/09/30 06:29:15;;;;;;;12.45;5.20;;;;;;;;;;4801449;29;32453;-66
2021/09/30 06:31:43;;;;;;;11.18;5.30;;;;;;;;;;4801399;29;34569;-65
2021/09/30 06:34:09;;;;;;;8.52;4.20;;;;;;;;;;4799582;29;32426;-65
2021/09/30 06:36:35;;;;;;;;;;;;;;;;;;4801626;29;32453;-64
2021/09/30 06:39:03;;;;;;;5.47;2.85;;;;;;;;;;4802557;29;32492;-66
2021/09/30 06:41:31;;;;;;;5.72;3.35;;;;;;;;;;4800629;29;34127;-65
2021/09/30 06:43:57;;;;;;;4.63;2.47;;;;;;;;;;4801298;29;32685;-66
2021/09/30 06:46:24;;;;;;;4.65;2.58;;;;;;;;;;4801137;29;32519;-67
2021/09/30 06:48:51;;;;;;;4.53;2.40;;;;;;;;;;4801515;29;32408;-66
2021/09/30 06:51:17;;;;;;;;;;;;;;;;;;4799392;29;32225;-65
2021/09/30 06:53:43;;;;;;;3.92;2.60;;;;;;;;;;4798221;29;34673;-66
2021/09/30 06:56:12;;;;;;;;;;;;;;;;;;4800365;29;32312;-64
2021/09/30 06:58:43;;;;;;;6.20;2.45;;;;;;;;;;4795636;29;32621;-64
2021/09/30 07:01:09;;;;;;;3.50;1.95;;;;;;;;;;4811116;29;32469;-64
2021/09/30 07:03:36;;;;;;;3.80;2.45;;;;;;;;;;4806476;29;34839;-64
2021/09/30 07:06:03;;;;;;;3.13;2.13;;;;;;;;;;4792469;29;32321;-64
2021/09/30 07:08:30;;;;;;;3.95;2.28;;;;;;;;;;4809065;29;32288;-64
2021/09/30 07:10:57;;;;;;;5.75;2.97;;;;;;;;;;4810701;29;32414;-63
2021/09/30 07:13:25;;;;;;;7.53;2.88;;;;;;;;;;4800854;29;32405;-62
2021/09/30 07:15:53;;;;;;;6.10;3.25;;;;;;;;;;4792897;29;34762;-63
2021/09/30 07:18:20;;;;;;;7.10;3.00;;;;;;;;;;4793011;29;32199;-62
2021/09/30 07:20:48;;;;;;;5.32;2.50;;;;;;;;;;4789307;29;32623;-64
2021/09/30 07:23:14;;;;;;;3.88;2.83;;;;;;;;;;4793110;29;32250;-62
2021/09/30 07:25:40;;;;;;;4.60;2.78;;;;;;;;;;4804278;29;34195;-63
2021/09/30 07:28:07;;;;;;;;;;;;;;;;;;4811096;29;32676;-65
2021/09/30 07:30:33;;;;;;;6.15;2.85;;;;;;;;;;4810605;29;32581;-63
2021/09/30 07:33:02;;;;;;;4.45;2.88;;;;;;;;;;4810839;29;32487;-65
2021/09/30 07:35:28;;;;;;;5.28;2.85;;;;;;;;;;4797807;29;32642;-64
2021/09/30 07:37:56;;;;;;;5.43;2.72;;;;;;;;;;4732473;29;34153;-64
2021/09/30 07:40:23;;;;;;;3.67;2.17;;;;;;;;;;4794332;29;32958;-64
2021/09/30 07:42:50;;;;;;;6.07;2.63;;;;;;;;;;4797754;29;32497;-66
2021/09/30 07:45:16;;;;;;;;;;;;;;;;;;4773271;29;32389;-64
2021/09/30 07:47:43;;;;;;;4.55;2.58;;;;;;;;;;4795489;29;34030;-67
2021/09/30 07:50:11;;;;;;;4.05;2.63;;;;;;;;;;4796076;29;33566;-64
2021/09/30 07:52:38;;;;;;;5.57;2.80;;;;;;;;;;4803076;29;32503;-64
2021/09/30 07:55:05;;;;;;;13.00;6.10;;;;;;;;;;4810725;29;32360;-64
2021/09/30 07:57:32;;;;;;;10.15;5.30;;;;;;;;;;4804772;29;32473;-65
2021/09/30 07:59:58;;;;;;;;;;;;;;;;;;4810024;29;35350;-65
2021/09/30 08:02:24;;;;;;;80.65;28.13;;;;;;;;;;4809856;29;32591;-65
2021/09/30 08:04:51;;;;;;;33.15;11.30;;;;;;;;;;4797402;29;32292;-64
2021/09/30 08:07:19;;;;;;;24.25;9.45;;;;;;;;;;4792247;29;32903;-68
2021/09/30 08:09:45;;;;;;;23.13;8.75;;;;;;;;;;4792491;29;34632;-65
2021/09/30 08:12:12;;;;;;;54.72;15.63;;;;;;;;;;4809739;29;32341;-65
2021/09/30 08:14:38;;;;;;;28.35;9.63;;;;;;;;;;4792637;29;32373;-64
2021/09/30 08:17:05;;;;;;;19.98;7.53;;;;;;;;;;4792093;29;32436;-65
2021/09/30 08:19:32;;;;;;;20.83;8.18;;;;;;;;;;4804139;29;32422;-67
2021/09/30 08:21:58;;;;;;;40.40;12.95;;;;;;;;;;4802299;29;34245;-66
2021/09/30 08:24:26;;;;;;;26.20;9.45;;;;;;;;;;4802966;29;32625;-66
2021/09/30 08:26:53;;;;;;;40.08;12.65;;;;;;;;;;4798689;29;32599;-64
2021/09/30 08:29:21;;;;;;;23.30;8.00;;;;;;;;;;4790070;29;32493;-65
2021/09/30 08:31:47;;;;;;;15.90;6.72;;;;;;;;;;4807839;29;34128;-66
2021/09/30 08:34:14;;;;;;;;;;;;;;;;;;4803549;29;32720;-65
2021/09/30 08:36:40;;;;;;;95.30;31.10;;;;;;;;;;4807835;29;32947;-65
2021/09/30 08:39:07;;;;;;;129.65;39.83;;;;;;;;;;4810968;29;32345;-66
2021/09/30 08:41:36;;;;;;;62.63;21.05;;;;;;;;;;4807597;29;32434;-65
2021/09/30 08:44:05;;;;;;;42.95;15.30;;;;;;;;;;4791512;29;34333;-64
2021/09/30 08:46:32;;;;;;;33.35;11.00;;;;;;;;;;4792201;29;32484;-66
2021/09/30 08:49:00;;;;;;;25.00;9.30;;;;;;;;;;4791925;29;32425;-64
2021/09/30 08:51:26;;;;;;;25.40;9.77;;;;;;;;;;4806496;29;32411;-64
2021/09/30 08:53:53;;;;;;;24.05;9.60;;;;;;;;;;4808997;29;35057;-65
2021/09/30 08:56:19;;;;;;;;;;;;;;;;;;4811025;29;32448;-65
2021/09/30 08:58:47;;;;;;;22.70;8.15;;;;;;;;;;4810333;29;32688;-66
2021/09/30 09:01:14;;;;;;;17.42;6.57;;;;;;;;;;4805978;29;32353;-65
2021/09/30 09:03:43;;;;;;;15.23;5.97;;;;;;;;;;4808971;29;32737;-66
2021/09/30 09:06:27;;;;;;;15.20;5.63;;;;;;;;;;4809968;29;34260;-64
2021/09/30 09:09:18;;;;;;;9.85;4.20;;;;;;;;;;4810184;29;32418;-65
2021/09/30 09:11:45;;;;;;;8.18;3.67;;;;;;;;;;4798433;29;32900;-64
2021/09/30 09:14:13;;;;;;;4.93;3.22;;;;;;;;;;4791987;29;32366;-65
2021/09/30 09:16:39;;;;;;;7.65;3.83;;;;;;;;;;4791686;29;33943;-65
2021/09/30 09:19:05;;;;;;;5.07;3.28;;;;;;;;;;4791268;29;32521;-64
2021/09/30 09:21:38;;;;;;;4.47;2.63;;;;;;;;;;4789941;29;32538;-65
2021/09/30 09:24:05;;;;;;;4.55;2.95;;;;;;;;;;4790686;29;32527;-65
2021/09/30 09:26:33;;;;;;;5.10;2.70;;;;;;;;;;4790696;29;33459;-65
2021/09/30 09:29:06;;;;;;;4.38;3.10;;;;;;;;;;4802725;29;35226;-64
2021/09/30 09:31:36;;;;;;;6.60;3.55;;;;;;;;;;4799478;29;32274;-65
2021/09/30 09:34:18;;;;;;;4.38;2.88;;;;;;;;;;4799599;29;32467;-64
2021/09/30 09:36:47;;;;;;;3.85;2.88;;;;;;;;;;4800997;29;32303;-64
2021/09/30 09:39:14;;;;;;;5.60;3.38;;;;;;;;;;4801884;29;34690;-64
2021/09/30 09:41:41;;;;;;;5.43;2.67;;;;;;;;;;4809953;29;32367;-64
2021/09/30 09:44:08;;;;;;;3.55;2.47;;;;;;;;;;4809537;29;32155;-66
2021/09/30 09:46:38;;;;;;;3.30;2.88;;;;;;;;;;4809951;29;32447;-65
2021/09/30 09:49:08;;;;;;;4.53;1.90;;;;;;;;;;4810118;29;32235;-65
2021/09/30 09:51:37;;;;;;;6.57;3.13;;;;;;;;;;4793057;29;35528;-65
2021/09/30 09:54:09;;;;;;;5.82;2.78;;;;;;;;;;4795742;29;32749;-66
2021/09/30 09:56:36;;;;;;;4.35;2.90;;;;;;;;;;4810009;29;32400;-64
2021/09/30 09:59:03;;;;;;;4.20;2.17;;;;;;;;;;4808344;29;32554;-64
2021/09/30 10:01:41;;;;;;;5.72;2.83;;;;;;;;;;4790799;29;34329;-65
2021/09/30 10:04:08;;;;;;;4.60;2.42;;;;;;;;;;4790927;29;32367;-65
2021/09/30 10:06:36;;;;;;;4.05;3.20;;;;;;;;;;4796189;29;32448;-64
2021/09/30 10:09:05;;;;;;;5.40;2.85;;;;;;;;;;4809283;29;32555;-65
2021/09/30 10:11:36;;;;;;;4.30;3.75;;;;;;;;;;4797828;29;32397;-65
2021/09/30 10:14:06;;;;;;;8.00;2.70;;;;;;;;;;4809077;29;35093;-65
2021/09/30 10:16:33;;;;;;;4.82;3.30;;;;;;;;;;4807401;29;32975;-65
2021/09/30 10:19:04;;;;;;;4.22;2.65;;;;;;;;;;4808238;29;32491;-65
2021/09/30 10:21:32;;;;;;;4.85;2.30;;;;;;;;;;4809911;29;32394;-65
2021/09/30 10:24:02;;;;;;;3.92;2.40;;;;;;;;;;4794737;29;33950;-65
2021/09/30 10:26:40;;;;;;;5.63;2.80;;;;;;;;;;4791031;29;32250;-65
2021/09/30 10:29:07;;;;;;;4.47;2.63;;;;;;;;;;4808743;29;32277;-66
2021/09/30 10:31:35;;;;;;;;;;;;;;;;;;4808476;29;32429;-65
2021/09/30 10:34:06;;;;;;;5.70;2.65;;;;;;;;;;4807164;29;32554;-66
2021/09/30 10:36:44;;;;;;;5.85;3.30;;;;;;;;;;4802359;29;34041;-65
2021/09/30 10:39:25;;;;;;;3.30;2.72;;;;;;;;;;4809718;29;32408;-66
2021/09/30 10:41:54;;;;;;;4.75;2.58;;;;;;;;;;4811306;29;32532;-66
2021/09/30 10:44:24;;;;;;;3.80;2.63;;;;;;;;;;4812043;29;32407;-65
2021/09/30 10:46:56;;;;;;;6.85;2.65;;;;;;;;;;4812307;29;34501;-66
2021/09/30 10:49:52;;;;;;;6.25;3.25;;;;;;;;;;4810055;29;32429;-65
2021/09/30 10:52:30;;;;;;;3.50;2.58;;;;;;;;;;4794195;29;32297;-66
2021/09/30 10:55:26;;;;;;;6.00;2.70;;;;;;;;;;4794346;29;32205;-65
2021/09/30 10:57:56;;;;;;;4.78;2.55;;;;;;;;;;4794068;29;32451;-65
2021/09/30 11:00:51;;;;;;;2.17;1.55;;;;;;;;;;4793531;29;34497;-66
2021/09/30 11:03:22;;;;;;;3.97;2.42;;;;;;;;;;4790136;29;32208;-66
2021/09/30 11:06:23;;;;;;;4.13;2.33;;;;;;;;;;4793286;29;32456;-66
2021/09/30 11:09:17;;;;;;;2.70;2.00;;;;;;;;;;4792275;29;32497;-66
2021/09/30 11:11:46;;;;;;;3.90;2.42;;;;;;;;;;4792085;29;34177;-66
2021/09/30 11:14:16;;;;;;;3.38;2.33;;;;;;;;;;4792967;29;32478;-65
2021/09/30 11:16:46;;;;;;;5.18;2.92;;;;;;;;;;4793135;29;32353;-65
2021/09/30 11:19:38;;;;;;;4.75;2.28;;;;;;;;;;4792882;29;33015;-67
2021/09/30 11:22:08;;;;;;;2.95;2.15;;;;;;;;;;4791271;29;32301;-65
2021/09/30 11:24:53;;;;;;;3.78;2.00;;;;;;;;;;4793116;29;34257;-65
2021/09/30 11:27:31;;;;;;;4.88;2.40;;;;;;;;;;4798275;29;32386;-66
2021/09/30 11:30:21;;;;;;;4.35;2.15;;;;;;;;;;4811618;29;32448;-65
2021/09/30 11:32:48;;;;;;;6.20;2.65;;;;;;;;;;4811423;29;32452;-65
2021/09/30 11:35:15;;;;;;;4.78;2.53;;;;;;;;;;4810656;29;34732;-65
2021/09/30 11:37:45;;;;;;;3.90;2.88;;;;;;;;;;4805533;29;32349;-64
2021/09/30 11:40:19;;;;;;;2.97;2.25;;;;;;;;;;4793932;29;32368;-65
2021/09/30 11:42:49;;;;;;;4.03;2.70;;;;;;;;;;4793484;29;32430;-67
2021/09/30 11:45:19;;;;;;;7.10;2.85;;;;;;;;;;4792449;29;32359;-66
2021/09/30 11:47:47;;;;;;;4.15;2.85;;;;;;;;;;4791959;29;34859;-67
2021/09/30 11:50:23;;;;;;;3.72;3.03;;;;;;;;;;4792318;29;32374;-66
2021/09/30 11:53:07;;;;;;;8.70;3.25;;;;;;;;;;4791253;29;32413;-63
2021/09/30 11:55:40;;;;;;;4.30;3.05;;;;;;;;;;4791993;29;32508;-65
2021/09/30 11:58:12;;;;;;;4.93;2.95;;;;;;;;;;4792162;29;35671;-64
2021/09/30 12:00:43;;;;;;;5.43;2.90;;;;;;;;;;4792782;29;32540;-63
2021/09/30 12:03:10;;;;;;;3.92;2.45;;;;;;;;;;4792615;29;32542;-67
2021/09/30 12:05:38;;;;;;;3.28;2.25;;;;;;;;;;4793295;29;32519;-64
2021/09/30 12:08:08;;;;;;;4.68;3.05;;;;;;;;;;4793335;29;32466;-65
2021/09/30 12:10:38;;;;;;;4.13;2.50;;;;;;;;;;4792253;29;34408;-64
2021/09/30 12:13:16;;;;;;;6.20;2.67;;;;;;;;;;4792476;29;32358;-65
2021/09/30 12:15:43;;;;;;;8.07;2.72;;;;;;;;;;4804973;29;32377;-65
2021/09/30 12:18:18;;;;;;;4.65;2.90;;;;;;;;;;4811018;29;32320;-64
2021/09/30 12:20:53;;;;;;;10.15;3.05;;;;;;;;;;4811038;29;34833;-64
2021/09/30 12:23:22;;;;;;;8.70;3.20;;;;;;;;;;4810844;29;32357;-64
2021/09/30 12:25:48;;;;;;;7.85;3.42;;;;;;;;;;4810430;29;32579;-65
2021/09/30 12:28:15;;;;;;;7.20;3.70;;;;;;;;;;4810697;29;32407;-65
2021/09/30 12:30:43;;;;;;;;;;;;;;;;;;4810882;29;32416;-64
2021/09/30 12:33:10;;;;;;;10.52;3.65;;;;;;;;;;4810134;29;34863;-64
2021/09/30 12:35:38;;;;;;;8.65;3.65;;;;;;;;;;4810337;29;32488;-63
2021/09/30 12:38:10;;;;;;;15.70;4.70;;;;;;;;;;4810748;29;32452;-65
2021/09/30 12:40:41;;;;;;;9.15;4.07;;;;;;;;;;4805615;29;32462;-64
2021/09/30 12:43:10;;;;;;;8.82;4.10;;;;;;;;;;4810534;29;35468;-64
2021/09/30 12:45:40;;;;;;;8.77;3.75;;;;;;;;;;4810577;29;32475;-63
2021/09/30 12:48:09;;;;;;;7.13;3.65;;;;;;;;;;4805444;29;32394;-64
2021/09/30 12:50:45;;;;;;;11.98;4.90;;;;;;;;;;4809853;29;57046;-65
2021/09/30 12:53:13;;;;;;;8.05;3.78;;;;;;;;;;4810936;29;32305;-65
2021/09/30 12:55:42;;;;;;;5.68;3.60;;;;;;;;;;4809937;29;32574;-65
2021/09/30 12:58:28;;;;;;;6.70;3.03;;;;;;;;;;4811034;29;32135;-63
2021/09/30 13:00:56;;;;;;;7.35;3.70;;;;;;;;;;4810632;29;32144;-64
2021/09/30 13:03:24;;;;;;;6.32;3.90;;;;;;;;;;4808794;29;32557;-64
2021/09/30 13:05:53;;;;;;;5.70;3.72;;;;;;;;;;4809691;29;35742;-64
2021/09/30 13:08:41;;;;;;;9.20;3.65;;;;;;;;;;4810247;29;32464;-64
2021/09/30 13:11:30;;;;;;;5.55;3.58;;;;;;;;;;4799871;29;33070;-64
2021/09/30 13:14:24;;;;;;;7.32;3.55;;;;;;;;;;4792008;29;32367;-65
2021/09/30 13:16:53;;;;;;;6.57;3.17;;;;;;;;;;4792422;29;32554;-65
2021/09/30 13:19:38;;;;;;;4.75;3.10;;;;;;;;;;4791926;29;32572;-64
2021/09/30 13:22:05;;;;;;;8.73;3.38;;;;;;;;;;4792066;29;32477;-65
2021/09/30 13:24:35;;;;;;;9.27;3.55;;;;;;;;;;4791772;29;32481;-64
2021/09/30 13:27:04;;;;;;;8.38;3.85;;;;;;;;;;4792022;29;32380;-64
2021/09/30 13:29:31;;;;;;;6.60;3.40;;;;;;;;;;4791615;29;34134;-64
2021/09/30 13:31:57;;;;;;;4.65;3.40;;;;;;;;;;4791509;29;32319;-63
2021/09/30 13:34:24;;;;;;;7.30;3.55;;;;;;;;;;4791423;29;32385;-63
2021/09/30 13:36:50;;;;;;;7.95;3.50;;;;;;;;;;4791989;29;32452;-64
2021/09/30 13:39:17;;;;;;;5.35;3.22;;;;;;;;;;4791842;29;32337;-64
2021/09/30 13:41:44;;;;;;;7.40;4.20;;;;;;;;;;4805205;29;32397;-63
2021/09/30 13:44:12;;;;;;;;;;;;;;;;;;4809918;29;32534;-65
2021/09/30 13:46:38;;;;;;;5.18;2.97;;;;;;;;;;4809592;29;32314;-65
2021/09/30 13:49:05;;;;;;;8.77;3.33;;;;;;;;;;4809835;29;32204;-66
2021/09/30 13:51:32;;;;;;;4.68;2.80;;;;;;;;;;4807056;29;35061;-64
2021/09/30 13:54:00;;;;;;;5.15;3.58;;;;;;;;;;4809896;29;32374;-66
2021/09/30 13:56:27;;;;;;;6.43;3.78;;;;;;;;;;4806727;29;32483;-65
2021/09/30 13:58:54;;;;;;;6.28;3.17;;;;;;;;;;4809903;29;32516;-63
2021/09/30 14:01:22;;;;;;;4.82;3.03;;;;;;;;;;4809722;29;32589;-63
2021/09/30 14:03:48;;;;;;;9.25;3.70;;;;;;;;;;4809815;29;32425;-64
2021/09/30 14:06:18;;;;;;;7.25;3.33;;;;;;;;;;4809720;29;32432;-63
2021/09/30 14:08:45;;;;;;;5.72;3.42;;;;;;;;;;4809754;29;32354;-64
2021/09/30 14:11:13;;;;;;;6.63;2.97;;;;;;;;;;4802081;29;32344;-63
2021/09/30 14:13:40;;;;;;;7.10;3.25;;;;;;;;;;4805059;29;34499;-64
2021/09/30 14:16:07;;;;;;;6.07;3.70;;;;;;;;;;4792996;29;32407;-64
2021/09/30 14:18:36;;;;;;;6.45;3.88;;;;;;;;;;4800943;29;32279;-64
2021/09/30 14:21:02;;;;;;;9.82;4.13;;;;;;;;;;4812165;29;32262;-63
2021/09/30 14:23:29;;;;;;;8.10;4.20;;;;;;;;;;4811235;29;32471;-64
2021/09/30 14:25:58;;;;;;;9.13;4.00;;;;;;;;;;4808386;29;32183;-65
2021/09/30 14:28:25;;;;;;;7.90;3.58;;;;;;;;;;4798716;29;32551;-64
2021/09/30 14:30:55;;;;;;;8.35;4.05;;;;;;;;;;4812065;29;32516;-64
2021/09/30 14:33:23;;;;;;;7.38;4.10;;;;;;;;;;4812099;29;32485;-64
2021/09/30 14:35:52;;;;;;;8.50;4.28;;;;;;;;;;4811713;29;34278;-64
2021/09/30 14:38:19;;;;;;;7.57;4.05;;;;;;;;;;4811321;29;32542;-64
2021/09/30 14:40:49;;;;;;;7.32;4.45;;;;;;;;;;4811468;29;32563;-64
2021/09/30 14:43:16;;;;;;;7.55;4.03;;;;;;;;;;4799569;29;32665;-63
2021/09/30 14:45:43;;;;;;;6.40;4.32;;;;;;;;;;4800298;29;32287;-63
2021/09/30 14:48:09;;;;;;;;;;;;;;;;;;4793341;29;32517;-63
2021/09/30 14:50:36;;;;;;;9.52;3.92;;;;;;;;;;4792946;29;32476;-64
2021/09/30 14:53:04;;;;;;;8.30;3.63;;;;;;;;;;4793079;29;32412;-64
2021/09/30 14:55:31;;;;;;;10.57;4.30;;;;;;;;;;4792560;29;32410;-65
2021/09/30 14:57:58;;;;;;;10.93;3.22;;;;;;;;;;4807882;29;35453;-66
2021/09/30 15:00:24;;;;;;;7.68;4.32;;;;;;;;;;4808838;29;32474;-64
2021/09/30 15:02:51;;;;;;;9.30;3.75;;;;;;;;;;4804252;29;32993;-64
2021/09/30 15:05:18;;;;;;;5.25;3.10;;;;;;;;;;4801132;29;33158;-65
2021/09/30 15:07:45;;;;;;;5.68;3.40;;;;;;;;;;4822153;29;34683;-66
2021/09/30 15:10:13;;;;;;;9.70;3.67;;;;;;;;;;4807873;29;32337;-64
2021/09/30 15:12:40;;;;;;;6.88;3.58;;;;;;;;;;4804516;29;32522;-66
2021/09/30 15:15:08;;;;;;;7.13;3.55;;;;;;;;;;4805596;29;32502;-64
2021/09/30 15:17:45;;;;;;;5.53;3.13;;;;;;;;;;4808589;29;32444;-62
2021/09/30 15:21:20;;;;;;;6.18;3.75;;;;;;;;;;4808805;29;34884;-64
2021/09/30 15:22:59;;;;;;;7.65;3.97;;;;;;;;;;4805228;29;32746;-62
2021/09/30 15:25:28;;;;;;;4.65;3.17;;;;;;;;;;4808555;29;32672;-64
2021/09/30 15:27:55;;;;;;;7.57;3.70;;;;;;;;;;4805217;29;32654;-66
2021/09/30 15:30:22;;;;;;;7.97;4.10;;;;;;;;;;4801317;29;34041;-64
2021/09/30 15:32:49;;;;;;;13.32;4.57;;;;;;;;;;4804004;29;32551;-65
2021/09/30 15:35:15;;;;;;;10.93;4.70;;;;;;;;;;4807076;29;32453;-65
2021/09/30 15:37:42;;;;;;;10.63;4.78;;;;;;;;;;4802912;29;32421;-65
2021/09/30 15:40:10;;;;;;;11.00;4.72;;;;;;;;;;4806381;29;32445;-65
2021/09/30 15:42:37;;;;;;;17.55;5.00;;;;;;;;;;4807516;29;34002;-65
2021/09/30 15:45:05;;;;;;;13.38;5.18;;;;;;;;;;4804408;29;32566;-63
2021/09/30 15:47:32;;;;;;;14.70;5.25;;;;;;;;;;4806992;29;32381;-65
2021/09/30 15:49:58;;;;;;;8.13;4.03;;;;;;;;;;4806691;29;32335;-66
2021/09/30 15:52:25;;;;;;;8.35;3.95;;;;;;;;;;4808974;29;34201;-67
2021/09/30 15:54:51;;;;;;;11.00;4.20;;;;;;;;;;4801359;29;32258;-64
2021/09/30 15:57:18;;;;;;;8.98;5.07;;;;;;;;;;4807286;29;32363;-64
2021/09/30 15:59:46;;;;;;;6.93;3.95;;;;;;;;;;4807791;29;32472;-64
2021/09/30 16:02:13;;;;;;;6.78;4.28;;;;;;;;;;4804051;29;32487;-64
2021/09/30 16:04:39;;;;;;;8.27;4.35;;;;;;;;;;4786249;29;35138;-65
2021/09/30 16:07:06;;;;;;;8.30;4.53;;;;;;;;;;4797145;29;32440;-66
2021/09/30 16:09:32;;;;;;;7.43;4.20;;;;;;;;;;4799003;29;33696;-64
2021/09/30 16:11:59;;;;;;;9.07;4.20;;;;;;;;;;4800978;29;32305;-66
2021/09/30 16:14:25;;;;;;;9.18;4.38;;;;;;;;;;4815384;29;34221;-65
2021/09/30 16:16:57;;;;;;;9.63;4.55;;;;;;;;;;4802999;29;32780;-65
2021/09/30 16:19:24;;;;;;;8.00;4.63;;;;;;;;;;4796014;29;33085;-65
2021/09/30 16:21:50;;;;;;;9.18;4.72;;;;;;;;;;4799868;29;32526;-64
2021/09/30 16:24:17;;;;;;;7.85;3.50;;;;;;;;;;4803911;29;32400;-64
2021/09/30 16:26:44;;;;;;;;;;;;;;;;;;4795183;29;34131;-64
2021/09/30 16:29:10;;;;;;;9.07;4.45;;;;;;;;;;4802046;29;32611;-64
2021/09/30 16:31:37;;;;;;;8.30;5.05;;;;;;;;;;4807087;29;32597;-66
2021/09/30 16:34:05;;;;;;;10.30;5.18;;;;;;;;;;4806444;29;32640;-66
2021/09/30 16:36:32;;;;;;;8.77;4.72;;;;;;;;;;4807698;29;34646;-65
2021/09/30 16:39:00;;;;;;;9.15;4.57;;;;;;;;;;4804035;29;32421;-66
2021/09/30 16:41:27;;;;;;;7.38;4.43;;;;;;;;;;4801632;29;32879;-65
2021/09/30 16:43:53;;;;;;;8.52;4.00;;;;;;;;;;4799707;29;32944;-65
2021/09/30 16:46:20;;;;;;;8.88;4.20;;;;;;;;;;4801718;29;32638;-64
2021/09/30 16:48:47;;;;;;;8.40;4.43;;;;;;;;;;4801304;29;34487;-64
2021/09/30 16:51:16;;;;;;;7.07;4.38;;;;;;;;;;4804975;29;32455;-63
2021/09/30 16:53:42;;;;;;;9.02;4.55;;;;;;;;;;4804170;29;32898;-64
2021/09/30 16:56:09;;;;;;;7.28;4.20;;;;;;;;;;4803589;29;32737;-65
2021/09/30 16:58:36;;;;;;;9.43;4.53;;;;;;;;;;4804196;29;34413;-65
2021/09/30 17:01:02;;;;;;;8.98;4.40;;;;;;;;;;4804667;29;32519;-63
2021/09/30 17:03:29;;;;;;;6.78;4.35;;;;;;;;;;4805937;29;32369;-63
2021/09/30 17:05:56;;;;;;;7.78;4.25;;;;;;;;;;4804781;29;33040;-63
2021/09/30 17:08:23;;;;;;;8.35;4.10;;;;;;;;;;4805168;29;32495;-65
2021/09/30 17:10:50;;;;;;;6.35;3.75;;;;;;;;;;4797175;29;35398;-63
2021/09/30 17:13:18;;;;;;;7.70;4.25;;;;;;;;;;4804174;29;32579;-64
2021/09/30 17:15:46;;;;;;;5.90;3.50;;;;;;;;;;4794242;29;32691;-65
2021/09/30 17:18:12;;;;;;;6.00;3.60;;;;;;;;;;4804439;29;32610;-65
2021/09/30 17:20:39;;;;;;;7.05;3.70;;;;;;;;;;4802920;29;34839;-66
2021/09/30 17:23:05;;;;;;;11.05;3.50;;;;;;;;;;4800951;29;32586;-66
2021/09/30 17:25:33;;;;;;;13.27;4.45;;;;;;;;;;4801234;29;32716;-65
2021/09/30 17:28:00;;;;;;;7.90;4.55;;;;;;;;;;4805414;29;32503;-65
2021/09/30 17:30:27;;;;;;;10.43;3.92;;;;;;;;;;4800198;29;32680;-65
2021/09/30 17:32:53;;;;;;;9.30;4.38;;;;;;;;;;4798606;29;35037;-66
2021/09/30 17:35:23;;;;;;;5.60;3.78;;;;;;;;;;4804582;29;32567;-65
2021/09/30 17:37:50;;;;;;;5.82;3.30;;;;;;;;;;4804803;29;32287;-65
2021/09/30 17:40:16;;;;;;;8.00;4.45;;;;;;;;;;4803100;29;32393;-64
2021/09/30 17:42:44;;;;;;;7.60;4.68;;;;;;;;;;4802505;29;34580;-64
2021/09/30 17:45:12;;;;;;;7.28;4.30;;;;;;;;;;4801539;29;32405;-63
2021/09/30 17:47:38;;;;;;;7.07;4.10;;;;;;;;;;4799907;29;32485;-65
2021/09/30 17:50:08;;;;;;;8.60;4.47;;;;;;;;;;4805611;29;32512;-64
2021/09/30 17:52:35;;;;;;;9.65;5.10;;;;;;;;;;4808303;29;32473;-65
2021/09/30 17:55:03;;;;;;;5.70;3.95;;;;;;;;;;4805035;29;34029;-64